Avon, North Carolina
Current Conditions -  °F | °C
As of 7:51 PM on Tuesday 27 Jan 2015 (Local Time) from KHSE Reporting Station
Overcast Overcast  
Wind Chill: -3°   Ceiling: 2000
Heat Index:   Visibility: 10mi
Dew Point: -1°   Wind: 15mph
Humidity: 82%   Direction: 320°NW
Pressure: 29.86"   Gusts: 25mph
Location:  35.35°N, 75.51°W
Report Text: KHSE 280051Z AUTO 32013G22KT 10SM OVC020 02/M01 A2986 RMK AO2 SLP110 T00221006 FZRANO TSNO
Loading
Personal Weather Stations






























Interactive Weather Map New forecast layout! Learn more

10-Day Weather Forecast

Advertisements
Track Severe Weather on mobile